Half Moon — WDE8672 — position and weather

sailwx.info

Track history (hours):
 
Tides and Currents Weather Stations Pressure Air Temp Water Temp Dewpoint Dewpoint Depression Visibility Wind Speed Wind Dir Waves Ship Positions

Half Moon (USA)

Ship's website: http://www.halfmoon.mus.ny.us/

Owner: Holland Village, Inc., Lumberton, NC. More information available from US FCC via Universal Licensing System and Coast Guard Vessel Documentation Center.

Last reported at 2017-Sep-29 19:14 UTC. Time now 2017-Dec-16 01:50 UTC.
Position N 52°38' E 005°04'.
Warning: this ship's position is months out of date.

Length 31 m; draft 2.7 m.

Type: Other ship. MMSI: 366464000.

Date/timePositionNaut miles runAvg speedWind from/ knotsBaromVisibWave heightAir tempDewpointWater temp
2017-Sep-29 19:14N 52°38' E 005°04'0 0.5
2017-Sep-29 18:59N 52°38' E 005°04'1 1.9
2017-Sep-29 18:30N 52°37' E 005°05'1 1.2
2017-Sep-29 18:00N 52°37' E 005°05'1 1.1
2017-Sep-29 17:30N 52°37' E 005°04'1 1.4
2017-Sep-29 17:00N 52°37' E 005°03'1 1.2
2017-Sep-29 16:28N 52°38' E 005°04'0 0.0
2017-Sep-28 17:32N 52°38' E 005°04'0 0.0
2017-Sep-28 17:28N 52°38' E 005°04'0 0.5
2017-Sep-28 17:00N 52°38' E 005°04'0 0.8
2017-Sep-28 16:30N 52°38' E 005°04'1 1.3
2017-Sep-28 16:00N 52°37' E 005°04'1 1.7
2017-Sep-28 15:30N 52°38' E 005°04'0 0.0
2017-Sep-26 13:47N 52°38' E 005°04'0 0.0
2017-Sep-26 13:30N 52°38' E 005°04'0 0.4
2017-Sep-26 13:00N 52°38' E 005°04'1 2.4
2017-Sep-26 12:30N 52°38' E 005°06'1 3.0
2017-Sep-26 12:00N 52°37' E 005°08'1 3.0
2017-Sep-26 11:30N 52°37' E 005°11'2 3.3
2017-Sep-26 11:00N 52°38' E 005°13'2 3.7
2017-Sep-26 10:30N 52°40' E 005°15'2 0.2
2017-Sep-25 22:21N 52°41' E 005°16'0 0.9
2017-Sep-25 22:00N 52°41' E 005°17'0 0.4
2017-Sep-25 21:29N 52°41' E 005°17'0 0.0
2017-Sep-25 21:00N 52°41' E 005°17'0 0.0
2017-Sep-25 20:30N 52°41' E 005°17'1 1.0
2017-Sep-25 20:00N 52°42' E 005°18'0 0.6
2017-Sep-25 19:30N 52°42' E 005°17'0 0.9
2017-Sep-25 19:00N 52°42' E 005°18'1 2.5
2017-Sep-25 18:30N 52°43' E 005°19'2 3.4
2017-Sep-25 18:00N 52°45' E 005°19'2 3.3
2017-Sep-25 17:30N 52°47' E 005°19'2 3.1
2017-Sep-25 17:00N 52°48' E 005°18'2 3.0
2017-Sep-25 16:30N 52°50' E 005°18'3 5.7
2017-Sep-25 16:00N 52°53' E 005°19'3 5.9
2017-Sep-25 15:30N 52°55' E 005°19'3 5.8
2017-Sep-25 15:00N 52°58' E 005°20'3 5.2
2017-Sep-25 14:30N 53°01' E 005°20'3 5.5
2017-Sep-25 14:00N 53°04' E 005°21'1 1.7
2017-Sep-25 13:30N 53°04' E 005°20'0 0.6
2017-Sep-25 13:00N 53°05' E 005°20'1 2.0
2017-Sep-25 12:30N 53°05' E 005°21'1 2.7
2017-Sep-25 12:00N 53°07' E 005°22'1 2.5
2017-Sep-25 11:30N 53°08' E 005°23'1 2.4
2017-Sep-25 11:00N 53°09' E 005°23'1 2.7
2017-Sep-25 10:30N 53°10' E 005°24'1 1.2
2017-Sep-25 10:00N 53°10' E 005°25'0 0.0
2017-Sep-25 09:30N 53°10' E 005°25'0 0.0
2017-Sep-25 09:00N 53°10' E 005°25'0 0.0
2017-Sep-25 08:30N 53°10' E 005°25'0 0.0
2017-Sep-25 08:00N 53°10' E 005°25'0 0.0
2017-Sep-25 07:30N 53°10' E 005°25'0 0.0
2017-Sep-25 07:00N 53°10' E 005°25'0 0.0
2017-Sep-25 06:30N 53°10' E 005°25'0 0.0
2017-Sep-25 06:00N 53°10' E 005°25'0 0.0
2017-Sep-25 05:30N 53°10' E 005°25'0 0.0
2017-Sep-25 05:00N 53°10' E 005°25'0 0.0
2017-Sep-25 04:30N 53°10' E 005°25'0 0.0
2017-Sep-25 04:00N 53°10' E 005°25'0 0.0
2017-Sep-25 03:30N 53°10' E 005°25'0 0.0
2017-Sep-25 03:00N 53°10' E 005°25'0 0.0
2017-Sep-25 02:30N 53°10' E 005°25'0 0.0
2017-Sep-25 02:00N 53°10' E 005°25'0 0.0
2017-Sep-25 01:30N 53°10' E 005°25'0 0.0
2017-Sep-25 01:00N 53°10' E 005°25'0 0.0
2017-Sep-25 00:30N 53°10' E 005°25'0 0.0
2017-Sep-25 00:00N 53°10' E 005°25'0 0.0
2017-Sep-24 23:30N 53°10' E 005°25'0 0.0
2017-Sep-24 23:00N 53°10' E 005°25'0 0.0
2017-Sep-24 22:27N 53°10' E 005°25'0 0.0
2017-Sep-24 22:00N 53°10' E 005°25'0 0.0
2017-Sep-24 21:30N 53°10' E 005°25'0 0.0
2017-Sep-24 21:00N 53°10' E 005°25'0 0.0
2017-Sep-24 20:30N 53°10' E 005°25'0 0.0
2017-Sep-24 20:00N 53°10' E 005°25'0 0.0
2017-Sep-24 19:30N 53°10' E 005°25'2 4.3
2017-Sep-24 19:00N 53°11' E 005°21'3 5.4
2017-Sep-24 18:30N 53°13' E 005°18'3 5.3
2017-Sep-24 17:59N 53°14' E 005°14'2 3.7
2017-Sep-24 17:30N 53°15' E 005°11'2 4.4
2017-Sep-24 17:00N 53°17' E 005°11'3 5.5
2017-Sep-24 16:30N 53°18' E 005°15'2 3.3
2017-Sep-24 16:00N 53°20' E 005°14'1 2.8
2017-Sep-24 15:30N 53°21' E 005°13'0 0.7
2017-Sep-24 15:00N 53°22' E 005°13'0 0.0
2017-Sep-24 14:30N 53°22' E 005°13'0 0.0
2017-Sep-24 14:00N 53°22' E 005°13'0 0.0
2017-Sep-24 13:27N 53°22' E 005°13'0 0.0
2017-Sep-24 13:00N 53°22' E 005°13'0 0.0
2017-Sep-24 12:30N 53°22' E 005°13'0 0.0
2017-Sep-24 11:57N 53°22' E 005°13'0 0.0
2017-Sep-24 11:30N 53°22' E 005°13'0 0.0
2017-Sep-24 10:57N 53°22' E 005°13'0 0.0
2017-Sep-24 10:27N 53°22' E 005°13'0 0.0
2017-Sep-24 10:00N 53°22' E 005°13'0 0.0
2017-Sep-24 09:30N 53°22' E 005°13'0 0.0
2017-Sep-24 09:00N 53°22' E 005°13'0 0.3
2017-Sep-24 08:30N 53°22' E 005°13'0 0.0
2017-Sep-24 08:00N 53°22' E 005°13'0 0.0
2017-Sep-24 07:30N 53°22' E 005°13'0 0.0
2017-Sep-24 07:00N 53°22' E 005°13'0 0.0
2017-Sep-24 06:30N 53°22' E 005°13'0 0.0
2017-Sep-24 06:00N 53°22' E 005°13'0 0.0
2017-Sep-24 05:30N 53°22' E 005°13'0 0.0
2017-Sep-24 05:00N 53°22' E 005°13'0 0.0
2017-Sep-24 04:30N 53°22' E 005°13'0 0.0
2017-Sep-24 04:00N 53°22' E 005°13'0 0.0
2017-Sep-24 03:30N 53°22' E 005°13'0 0.0
2017-Sep-24 03:00N 53°22' E 005°13'0 0.0
2017-Sep-24 02:30N 53°22' E 005°13'0 0.0
2017-Sep-24 01:59N 53°22' E 005°13'0 0.0
2017-Sep-24 01:29N 53°22' E 005°13'0 0.0
2017-Sep-24 00:59N 53°22' E 005°13'0 0.0
2017-Sep-24 00:29N 53°22' E 005°13'0 0.0
2017-Sep-23 23:56N 53°22' E 005°13'0 0.0
2017-Sep-23 23:29N 53°22' E 005°13'0 0.0
2017-Sep-23 22:59N 53°22' E 005°13'0 0.0
2017-Sep-23 22:29N 53°22' E 005°13'0 0.0
2017-Sep-23 21:59N 53°22' E 005°13'0 0.0
2017-Sep-23 21:29N 53°22' E 005°13'0 0.0
2017-Sep-23 20:59N 53°22' E 005°13'0 0.0
2017-Sep-23 20:29N 53°22' E 005°13'0 0.0
2017-Sep-23 20:00N 53°22' E 005°13'0 0.0
2017-Sep-22 01:56N 53°22' E 005°13'0 0.0
2017-Sep-22 01:29N 53°22' E 005°13'0 0.0
2017-Sep-22 00:56N 53°22' E 005°13'0 0.0
2017-Sep-22 00:29N 53°22' E 005°13'0 0.0
2017-Sep-21 23:59N 53°22' E 005°13'0 0.0
2017-Sep-21 23:29N 53°22' E 005°13'0 0.0
2017-Sep-21 22:59N 53°22' E 005°13'0 0.0
2017-Sep-21 22:29N 53°22' E 005°13'0 0.0
2017-Sep-21 21:59N 53°22' E 005°13'0 0.0
2017-Sep-21 21:29N 53°22' E 005°13'0 0.0
2017-Sep-21 20:59N 53°22' E 005°13'0 0.0
2017-Sep-21 20:29N 53°22' E 005°13'0 0.0
2017-Sep-21 19:59N 53°22' E 005°13'0 0.0
2017-Sep-21 19:29N 53°22' E 005°13'0 0.0
2017-Sep-21 18:59N 53°22' E 005°13'0 0.0
2017-Sep-21 18:29N 53°22' E 005°13'0 0.0
2017-Sep-21 17:56N 53°22' E 005°13'0 0.0
2017-Sep-21 17:29N 53°22' E 005°13'0 0.0
2017-Sep-21 16:59N 53°22' E 005°13'0 0.0
2017-Sep-21 16:29N 53°22' E 005°13'0 0.0
2017-Sep-21 15:59N 53°22' E 005°13'0 0.0
2017-Sep-21 15:25N 53°22' E 005°13'0 0.0
2017-Sep-21 14:59N 53°22' E 005°13'0 0.0
2017-Sep-21 14:28N 53°22' E 005°13'0 0.0
2017-Sep-21 13:59N 53°22' E 005°13'0 0.0
2017-Sep-21 13:29N 53°22' E 005°13'0 0.0
2017-Sep-21 12:58N 53°22' E 005°13'0 0.0
2017-Sep-21 12:28N 53°22' E 005°13'0 0.0
2017-Sep-21 11:58N 53°22' E 005°13'0 0.0
2017-Sep-21 11:28N 53°22' E 005°13'0 0.0
2017-Sep-21 10:58N 53°22' E 005°13'0 0.0
2017-Sep-21 10:29N 53°22' E 005°13'0 0.0
2017-Sep-21 09:58N 53°22' E 005°13'0 0.0
2017-Sep-21 09:16N 53°22' E 005°13'0 0.0
2017-Sep-21 08:58N 53°22' E 005°13'0 0.0
2017-Sep-21 08:28N 53°22' E 005°13'0 0.0
2017-Sep-21 07:58N 53°22' E 005°13'0 0.0
2017-Sep-21 07:28N 53°22' E 005°13'0 0.0
2017-Sep-21 06:49N 53°22' E 005°13'0 0.0
2017-Sep-21 06:25N 53°22' E 005°13'0 0.0
2017-Sep-21 05:58N 53°22' E 005°13'0 0.0
2017-Sep-21 05:28N 53°22' E 005°13'0 0.0
2017-Sep-21 04:58N 53°22' E 005°13'0 0.0
2017-Sep-21 04:28N 53°22' E 005°13'0 0.0
2017-Sep-21 03:58N 53°22' E 005°13'0 0.0
2017-Sep-21 03:25N 53°22' E 005°13'0 0.0
2017-Sep-21 02:58N 53°22' E 005°13'0 0.0
2017-Sep-21 02:28N 53°22' E 005°13'0 0.0
2017-Sep-21 01:58N 53°22' E 005°13'0 0.0
2017-Sep-21 01:28N 53°22' E 005°13'0 0.0
2017-Sep-21 00:55N 53°22' E 005°13'0 0.0
2017-Sep-21 00:28N 53°22' E 005°13'0 0.0
2017-Sep-20 23:58N 53°22' E 005°13'0 0.0
2017-Sep-20 23:28N 53°22' E 005°13'0 0.0
2017-Sep-20 22:58N 53°22' E 005°13'0 0.0
2017-Sep-20 22:28N 53°22' E 005°13'0 0.0
2017-Sep-20 21:58N 53°22' E 005°13'0 0.0
2017-Sep-20 21:28N 53°22' E 005°13'0 0.0
2017-Sep-20 20:58N 53°22' E 005°13'0 0.0
2017-Sep-20 20:28N 53°22' E 005°13'0 0.0
2017-Sep-20 19:58N 53°22' E 005°13'0 0.0
2017-Sep-20 19:28N 53°22' E 005°13'0 0.0
2017-Sep-20 18:58N 53°22' E 005°13'0 0.0
2017-Sep-20 18:28N 53°22' E 005°13'0 0.0
2017-Sep-20 17:58N 53°22' E 005°13'0 0.0
2017-Sep-20 17:25N 53°22' E 005°13'0 0.0
2017-Sep-20 16:58N 53°22' E 005°13'0 0.0
2017-Sep-20 16:28N 53°22' E 005°13'0 0.0
2017-Sep-20 15:58N 53°22' E 005°13'0 0.0
2017-Sep-20 15:28N 53°22' E 005°13'0 0.0
2017-Sep-20 14:58N 53°22' E 005°13'0 0.0
2017-Sep-20 13:58N 53°22' E 005°13'0 1.0
2017-Sep-20 13:31N 53°21' E 005°13'1 2.6
2017-Sep-20 13:00N 53°20' E 005°14'2 3.1
2017-Sep-20 12:31N 53°19' E 005°15'1 1.9
2017-Sep-20 11:48N 53°18' E 005°12'1 2.6
2017-Sep-20 11:30N 53°18' E 005°11'6 4.1
2017-Sep-20 10:08N 53°14' E 005°17'1 3.8
2017-Sep-20 09:56N 53°13' E 005°18'1 2.2
2017-Sep-20 09:22N 53°12' E 005°18'1 3.9
2017-Sep-20 09:00N 53°11' E 005°20'2 3.8
2017-Sep-20 08:30N 53°11' E 005°23'1 1.6
2017-Sep-20 07:59N 53°10' E 005°25'0 0.0
2017-Sep-20 07:29N 53°10' E 005°25'0 0.0
2017-Sep-20 06:59N 53°10' E 005°25'0 0.0
2017-Sep-20 06:29N 53°10' E 005°25'0 0.0
2017-Sep-20 05:59N 53°10' E 005°25'0 0.0
2017-Sep-20 05:29N 53°10' E 005°25'0 0.0
2017-Sep-20 04:59N 53°10' E 005°25'0 0.0
2017-Sep-20 04:29N 53°10' E 005°25'0 0.0
2017-Sep-20 03:59N 53°10' E 005°25'0 0.0
2017-Sep-20 03:29N 53°10' E 005°25'0 0.0
2017-Sep-20 02:59N 53°10' E 005°25'0 0.0
2017-Sep-20 02:29N 53°10' E 005°25'0 0.0
2017-Sep-20 01:59N 53°10' E 005°25'0 0.0
2017-Sep-20 01:29N 53°10' E 005°25'0 0.0
2017-Sep-20 00:59N 53°10' E 005°25'0 0.0
2017-Sep-20 00:29N 53°10' E 005°25'0 0.0
2017-Sep-19 23:59N 53°10' E 005°25'0 0.0
2017-Sep-19 23:29N 53°10' E 005°25'0 0.0
2017-Sep-19 22:59N 53°10' E 005°25'0 0.0
2017-Sep-19 22:29N 53°10' E 005°25'0 0.0
2017-Sep-19 21:59N 53°10' E 005°25'0 0.0
2017-Sep-19 21:29N 53°10' E 005°25'0 0.0
2017-Sep-19 20:59N 53°10' E 005°25'0 0.0
2017-Sep-19 20:29N 53°10' E 005°25'0 0.0
2017-Sep-19 19:59N 53°10' E 005°25'0 0.0
2017-Sep-19 19:29N 53°10' E 005°25'  
Track history (hours):
 
Tides and Currents Weather Stations Pressure Air Temp Water Temp Dewpoint Dewpoint Depression Visibility Wind Speed Wind Dir Waves Ship Positions

Half Moon (USA)

Ship's website: http://www.halfmoon.mus.ny.us/

Owner: Holland Village, Inc., Lumberton, NC. More information available from US FCC via Universal Licensing System and Coast Guard Vessel Documentation Center.

Last reported at 2017-Sep-29 19:14 UTC. Time now 2017-Dec-16 01:50 UTC.
Position N 52°38' E 005°04'.
Warning: this ship's position is months out of date.

Length 31 m; draft 2.7 m.

Type: Other ship. MMSI: 366464000.

Date/timePositionNaut miles runAvg speedWind from/ knotsBaromVisibWave heightAir tempDewpointWater temp
2017-Sep-29 19:14N 52°38' E 005°04'0 0.5
2017-Sep-29 18:59N 52°38' E 005°04'1 1.9
2017-Sep-29 18:30N 52°37' E 005°05'1 1.2
2017-Sep-29 18:00N 52°37' E 005°05'1 1.1
2017-Sep-29 17:30N 52°37' E 005°04'1 1.4
2017-Sep-29 17:00N 52°37' E 005°03'1 1.2
2017-Sep-29 16:28N 52°38' E 005°04'0 0.0
2017-Sep-28 17:32N 52°38' E 005°04'0 0.0
2017-Sep-28 17:28N 52°38' E 005°04'0 0.5
2017-Sep-28 17:00N 52°38' E 005°04'0 0.8
2017-Sep-28 16:30N 52°38' E 005°04'1 1.3
2017-Sep-28 16:00N 52°37' E 005°04'1 1.7
2017-Sep-28 15:30N 52°38' E 005°04'0 0.0
2017-Sep-26 13:47N 52°38' E 005°04'0 0.0
2017-Sep-26 13:30N 52°38' E 005°04'0 0.4
2017-Sep-26 13:00N 52°38' E 005°04'1 2.4
2017-Sep-26 12:30N 52°38' E 005°06'1 3.0
2017-Sep-26 12:00N 52°37' E 005°08'1 3.0
2017-Sep-26 11:30N 52°37' E 005°11'2 3.3
2017-Sep-26 11:00N 52°38' E 005°13'2 3.7
2017-Sep-26 10:30N 52°40' E 005°15'2 0.2
2017-Sep-25 22:21N 52°41' E 005°16'0 0.9
2017-Sep-25 22:00N 52°41' E 005°17'0 0.4
2017-Sep-25 21:29N 52°41' E 005°17'0 0.0
2017-Sep-25 21:00N 52°41' E 005°17'0 0.0
2017-Sep-25 20:30N 52°41' E 005°17'1 1.0
2017-Sep-25 20:00N 52°42' E 005°18'0 0.6
2017-Sep-25 19:30N 52°42' E 005°17'0 0.9
2017-Sep-25 19:00N 52°42' E 005°18'1 2.5
2017-Sep-25 18:30N 52°43' E 005°19'2 3.4
2017-Sep-25 18:00N 52°45' E 005°19'2 3.3
2017-Sep-25 17:30N 52°47' E 005°19'2 3.1
2017-Sep-25 17:00N 52°48' E 005°18'2 3.0
2017-Sep-25 16:30N 52°50' E 005°18'3 5.7
2017-Sep-25 16:00N 52°53' E 005°19'3 5.9
2017-Sep-25 15:30N 52°55' E 005°19'3 5.8
2017-Sep-25 15:00N 52°58' E 005°20'3 5.2
2017-Sep-25 14:30N 53°01' E 005°20'3 5.5
2017-Sep-25 14:00N 53°04' E 005°21'1 1.7
2017-Sep-25 13:30N 53°04' E 005°20'0 0.6
2017-Sep-25 13:00N 53°05' E 005°20'1 2.0
2017-Sep-25 12:30N 53°05' E 005°21'1 2.7
2017-Sep-25 12:00N 53°07' E 005°22'1 2.5
2017-Sep-25 11:30N 53°08' E 005°23'1 2.4
2017-Sep-25 11:00N 53°09' E 005°23'1 2.7
2017-Sep-25 10:30N 53°10' E 005°24'1 1.2
2017-Sep-25 10:00N 53°10' E 005°25'0 0.0
2017-Sep-25 09:30N 53°10' E 005°25'0 0.0
2017-Sep-25 09:00N 53°10' E 005°25'0 0.0
2017-Sep-25 08:30N 53°10' E 005°25'0 0.0
2017-Sep-25 08:00N 53°10' E 005°25'0 0.0
2017-Sep-25 07:30N 53°10' E 005°25'0 0.0
2017-Sep-25 07:00N 53°10' E 005°25'0 0.0
2017-Sep-25 06:30N 53°10' E 005°25'0 0.0
2017-Sep-25 06:00N 53°10' E 005°25'0 0.0
2017-Sep-25 05:30N 53°10' E 005°25'0 0.0
2017-Sep-25 05:00N 53°10' E 005°25'0 0.0
2017-Sep-25 04:30N 53°10' E 005°25'0 0.0
2017-Sep-25 04:00N 53°10' E 005°25'0 0.0
2017-Sep-25 03:30N 53°10' E 005°25'0 0.0
2017-Sep-25 03:00N 53°10' E 005°25'0 0.0
2017-Sep-25 02:30N 53°10' E 005°25'0 0.0
2017-Sep-25 02:00N 53°10' E 005°25'0 0.0
2017-Sep-25 01:30N 53°10' E 005°25'0 0.0
2017-Sep-25 01:00N 53°10' E 005°25'0 0.0
2017-Sep-25 00:30N 53°10' E 005°25'0 0.0
2017-Sep-25 00:00N 53°10' E 005°25'0 0.0
2017-Sep-24 23:30N 53°10' E 005°25'0 0.0
2017-Sep-24 23:00N 53°10' E 005°25'0 0.0
2017-Sep-24 22:27N 53°10' E 005°25'0 0.0
2017-Sep-24 22:00N 53°10' E 005°25'0 0.0
2017-Sep-24 21:30N 53°10' E 005°25'0 0.0
2017-Sep-24 21:00N 53°10' E 005°25'0 0.0
2017-Sep-24 20:30N 53°10' E 005°25'0 0.0
2017-Sep-24 20:00N 53°10' E 005°25'0 0.0
2017-Sep-24 19:30N 53°10' E 005°25'2 4.3
2017-Sep-24 19:00N 53°11' E 005°21'3 5.4
2017-Sep-24 18:30N 53°13' E 005°18'3 5.3
2017-Sep-24 17:59N 53°14' E 005°14'2 3.7
2017-Sep-24 17:30N 53°15' E 005°11'2 4.4
2017-Sep-24 17:00N 53°17' E 005°11'3 5.5
2017-Sep-24 16:30N 53°18' E 005°15'2 3.3
2017-Sep-24 16:00N 53°20' E 005°14'1 2.8
2017-Sep-24 15:30N 53°21' E 005°13'0 0.7
2017-Sep-24 15:00N 53°22' E 005°13'0 0.0
2017-Sep-24 14:30N 53°22' E 005°13'0 0.0
2017-Sep-24 14:00N 53°22' E 005°13'0 0.0
2017-Sep-24 13:27N 53°22' E 005°13'0 0.0
2017-Sep-24 13:00N 53°22' E 005°13'0 0.0
2017-Sep-24 12:30N 53°22' E 005°13'0 0.0
2017-Sep-24 11:57N 53°22' E 005°13'0 0.0
2017-Sep-24 11:30N 53°22' E 005°13'0 0.0
2017-Sep-24 10:57N 53°22' E 005°13'0 0.0
2017-Sep-24 10:27N 53°22' E 005°13'0 0.0
2017-Sep-24 10:00N 53°22' E 005°13'0 0.0
2017-Sep-24 09:30N 53°22' E 005°13'0 0.0
2017-Sep-24 09:00N 53°22' E 005°13'0 0.3
2017-Sep-24 08:30N 53°22' E 005°13'0 0.0
2017-Sep-24 08:00N 53°22' E 005°13'0 0.0
2017-Sep-24 07:30N 53°22' E 005°13'0 0.0
2017-Sep-24 07:00N 53°22' E 005°13'0 0.0
2017-Sep-24 06:30N 53°22' E 005°13'0 0.0
2017-Sep-24 06:00N 53°22' E 005°13'0 0.0
2017-Sep-24 05:30N 53°22' E 005°13'0 0.0
2017-Sep-24 05:00N 53°22' E 005°13'0 0.0
2017-Sep-24 04:30N 53°22' E 005°13'0 0.0
2017-Sep-24 04:00N 53°22' E 005°13'0 0.0
2017-Sep-24 03:30N 53°22' E 005°13'0 0.0
2017-Sep-24 03:00N 53°22' E 005°13'0 0.0
2017-Sep-24 02:30N 53°22' E 005°13'0 0.0
2017-Sep-24 01:59N 53°22' E 005°13'0 0.0
2017-Sep-24 01:29N 53°22' E 005°13'0 0.0
2017-Sep-24 00:59N 53°22' E 005°13'0 0.0
2017-Sep-24 00:29N 53°22' E 005°13'0 0.0
2017-Sep-23 23:56N 53°22' E 005°13'0 0.0
2017-Sep-23 23:29N 53°22' E 005°13'0 0.0
2017-Sep-23 22:59N 53°22' E 005°13'0 0.0
2017-Sep-23 22:29N 53°22' E 005°13'0 0.0
2017-Sep-23 21:59N 53°22' E 005°13'0 0.0
2017-Sep-23 21:29N 53°22' E 005°13'0 0.0
2017-Sep-23 20:59N 53°22' E 005°13'0 0.0
2017-Sep-23 20:29N 53°22' E 005°13'0 0.0
2017-Sep-23 20:00N 53°22' E 005°13'0 0.0
2017-Sep-22 01:56N 53°22' E 005°13'0 0.0
2017-Sep-22 01:29N 53°22' E 005°13'0 0.0
2017-Sep-22 00:56N 53°22' E 005°13'0 0.0
2017-Sep-22 00:29N 53°22' E 005°13'0 0.0
2017-Sep-21 23:59N 53°22' E 005°13'0 0.0
2017-Sep-21 23:29N 53°22' E 005°13'0 0.0
2017-Sep-21 22:59N 53°22' E 005°13'0 0.0
2017-Sep-21 22:29N 53°22' E 005°13'0 0.0
2017-Sep-21 21:59N 53°22' E 005°13'0 0.0
2017-Sep-21 21:29N 53°22' E 005°13'0 0.0
2017-Sep-21 20:59N 53°22' E 005°13'0 0.0
2017-Sep-21 20:29N 53°22' E 005°13'0 0.0
2017-Sep-21 19:59N 53°22' E 005°13'0 0.0
2017-Sep-21 19:29N 53°22' E 005°13'0 0.0
2017-Sep-21 18:59N 53°22' E 005°13'0 0.0
2017-Sep-21 18:29N 53°22' E 005°13'0 0.0
2017-Sep-21 17:56N 53°22' E 005°13'0 0.0
2017-Sep-21 17:29N 53°22' E 005°13'0 0.0
2017-Sep-21 16:59N 53°22' E 005°13'0 0.0
2017-Sep-21 16:29N 53°22' E 005°13'0 0.0
2017-Sep-21 15:59N 53°22' E 005°13'0 0.0
2017-Sep-21 15:25N 53°22' E 005°13'0 0.0
2017-Sep-21 14:59N 53°22' E 005°13'0 0.0
2017-Sep-21 14:28N 53°22' E 005°13'0 0.0
2017-Sep-21 13:59N 53°22' E 005°13'0 0.0
2017-Sep-21 13:29N 53°22' E 005°13'0 0.0
2017-Sep-21 12:58N 53°22' E 005°13'0 0.0
2017-Sep-21 12:28N 53°22' E 005°13'0 0.0
2017-Sep-21 11:58N 53°22' E 005°13'0 0.0
2017-Sep-21 11:28N 53°22' E 005°13'0 0.0
2017-Sep-21 10:58N 53°22' E 005°13'0 0.0
2017-Sep-21 10:29N 53°22' E 005°13'0 0.0
2017-Sep-21 09:58N 53°22' E 005°13'0 0.0
2017-Sep-21 09:16N 53°22' E 005°13'0 0.0
2017-Sep-21 08:58N 53°22' E 005°13'0 0.0
2017-Sep-21 08:28N 53°22' E 005°13'0 0.0
2017-Sep-21 07:58N 53°22' E 005°13'0 0.0
2017-Sep-21 07:28N 53°22' E 005°13'0 0.0
2017-Sep-21 06:49N 53°22' E 005°13'0 0.0
2017-Sep-21 06:25N 53°22' E 005°13'0 0.0
2017-Sep-21 05:58N 53°22' E 005°13'0 0.0
2017-Sep-21 05:28N 53°22' E 005°13'0 0.0
2017-Sep-21 04:58N 53°22' E 005°13'0 0.0
2017-Sep-21 04:28N 53°22' E 005°13'0 0.0
2017-Sep-21 03:58N 53°22' E 005°13'0 0.0
2017-Sep-21 03:25N 53°22' E 005°13'0 0.0
2017-Sep-21 02:58N 53°22' E 005°13'0 0.0
2017-Sep-21 02:28N 53°22' E 005°13'0 0.0
2017-Sep-21 01:58N 53°22' E 005°13'0 0.0
2017-Sep-21 01:28N 53°22' E 005°13'0 0.0
2017-Sep-21 00:55N 53°22' E 005°13'0 0.0
2017-Sep-21 00:28N 53°22' E 005°13'0 0.0
2017-Sep-20 23:58N 53°22' E 005°13'0 0.0
2017-Sep-20 23:28N 53°22' E 005°13'0 0.0
2017-Sep-20 22:58N 53°22' E 005°13'0 0.0
2017-Sep-20 22:28N 53°22' E 005°13'0 0.0
2017-Sep-20 21:58N 53°22' E 005°13'0 0.0
2017-Sep-20 21:28N 53°22' E 005°13'0 0.0
2017-Sep-20 20:58N 53°22' E 005°13'0 0.0
2017-Sep-20 20:28N 53°22' E 005°13'0 0.0
2017-Sep-20 19:58N 53°22' E 005°13'0 0.0
2017-Sep-20 19:28N 53°22' E 005°13'0 0.0
2017-Sep-20 18:58N 53°22' E 005°13'0 0.0
2017-Sep-20 18:28N 53°22' E 005°13'0 0.0
2017-Sep-20 17:58N 53°22' E 005°13'0 0.0
2017-Sep-20 17:25N 53°22' E 005°13'0 0.0
2017-Sep-20 16:58N 53°22' E 005°13'0 0.0
2017-Sep-20 16:28N 53°22' E 005°13'0 0.0
2017-Sep-20 15:58N 53°22' E 005°13'0 0.0
2017-Sep-20 15:28N 53°22' E 005°13'0 0.0
2017-Sep-20 14:58N 53°22' E 005°13'0 0.0
2017-Sep-20 13:58N 53°22' E 005°13'0 1.0
2017-Sep-20 13:31N 53°21' E 005°13'1 2.6
2017-Sep-20 13:00N 53°20' E 005°14'2 3.1
2017-Sep-20 12:31N 53°19' E 005°15'1 1.9
2017-Sep-20 11:48N 53°18' E 005°12'1 2.6
2017-Sep-20 11:30N 53°18' E 005°11'6 4.1
2017-Sep-20 10:08N 53°14' E 005°17'1 3.8
2017-Sep-20 09:56N 53°13' E 005°18'1 2.2
2017-Sep-20 09:22N 53°12' E 005°18'1 3.9
2017-Sep-20 09:00N 53°11' E 005°20'2 3.8
2017-Sep-20 08:30N 53°11' E 005°23'1 1.6
2017-Sep-20 07:59N 53°10' E 005°25'0 0.0
2017-Sep-20 07:29N 53°10' E 005°25'0 0.0
2017-Sep-20 06:59N 53°10' E 005°25'0 0.0
2017-Sep-20 06:29N 53°10' E 005°25'0 0.0
2017-Sep-20 05:59N 53°10' E 005°25'0 0.0
2017-Sep-20 05:29N 53°10' E 005°25'0 0.0
2017-Sep-20 04:59N 53°10' E 005°25'0 0.0
2017-Sep-20 04:29N 53°10' E 005°25'0 0.0
2017-Sep-20 03:59N 53°10' E 005°25'0 0.0
2017-Sep-20 03:29N 53°10' E 005°25'0 0.0
2017-Sep-20 02:59N 53°10' E 005°25'0 0.0
2017-Sep-20 02:29N 53°10' E 005°25'0 0.0
2017-Sep-20 01:59N 53°10' E 005°25'0 0.0
2017-Sep-20 01:29N 53°10' E 005°25'0 0.0
2017-Sep-20 00:59N 53°10' E 005°25'0 0.0
2017-Sep-20 00:29N 53°10' E 005°25'0 0.0
2017-Sep-19 23:59N 53°10' E 005°25'0 0.0
2017-Sep-19 23:29N 53°10' E 005°25'0 0.0
2017-Sep-19 22:59N 53°10' E 005°25'0 0.0
2017-Sep-19 22:29N 53°10' E 005°25'0 0.0
2017-Sep-19 21:59N 53°10' E 005°25'0 0.0
2017-Sep-19 21:29N 53°10' E 005°25'0 0.0
2017-Sep-19 20:59N 53°10' E 005°25'0 0.0
2017-Sep-19 20:29N 53°10' E 005°25'0 0.0
2017-Sep-19 19:59N 53°10' E 005°25'0 0.0
2017-Sep-19 19:29N 53°10' E 005°25'  

Dump ship's entire track history